Vernon, Oklahoma
Current Conditions -  °F | °C
As of 11:53 PM on Friday 31 Oct 2014 (Local Time) from KMLC Reporting Station
Few Clouds Few Clouds  
Wind Chill: 40°   Ceiling: Unl
Heat Index: 40°   Visibility: 10mi
Dew Point: 29°   Wind: 3mph
Humidity: 65%   Direction: 80°E
Pressure: 30.4"   Gusts: NA
Location:  35.2158°N, 95.8817°W
Report Text: KMLC 010453Z AUTO 08003KT 10SM FEW110 04/M02 A3040 RMK AO2 SLP296 T00441017
Loading
Personal Weather Stations






























Interactive Weather Map
Tropical Storm Tracking
New forecast layout! Learn more

10-Day Weather Forecast

Advertisements
Track Severe Weather on mobile